Terminal Aerodrome Forecast
Issued by NWS Wakefield, VA

Current Version | Previous Version | Text Only | Print | Product List | Glossary On
Versions: 1 2 3 4 5 6 7 8 9 10 11 12 13 14 15 16
000
FTUS41 KAKQ 192300
TAFSBY
TAF
KSBY 192340Z 2000/2024 09004KT P6SM SKC
     FM200400 00000KT P6SM SKC
     FM201000 10003KT 4SM BR SCT015
     FM201300 10005KT P6SM SCT100
     FM201600 12008KT P6SM SCT030 BKN080=

USA.gov is the U.S. government's official web portal to all federal, state and local government web resources and services.